createdAt,value
2019-01-19T00:01:23.805Z,3.30
2019-01-19T00:04:11.978Z,3.30
2019-01-19T00:07:01.050Z,3.30
2019-01-19T00:09:59.609Z,3.30
2019-01-19T00:12:33.845Z,3.30
2019-01-19T00:15:03.105Z,3.40
2019-01-19T00:17:40.073Z,3.40
2019-01-19T00:20:27.818Z,3.40
2019-01-19T00:23:08.010Z,3.40
2019-01-19T00:25:54.109Z,3.40
2019-01-19T00:28:35.683Z,3.40
2019-01-19T00:34:25.504Z,3.40
2019-01-19T00:37:02.586Z,3.40
2019-01-19T00:39:42.930Z,3.30
2019-01-19T00:42:20.014Z,3.30
2019-01-19T00:45:07.827Z,3.30
2019-01-19T00:48:10.569Z,3.30
2019-01-19T00:50:53.728Z,3.30
2019-01-19T00:53:30.668Z,3.30
2019-01-19T00:56:27.631Z,3.30
2019-01-19T00:58:59.109Z,3.30
2019-01-19T01:01:33.279Z,3.30
2019-01-19T01:04:07.381Z,3.30
2019-01-19T01:06:57.806Z,3.30
2019-01-19T01:09:41.186Z,3.20
2019-01-19T01:12:27.522Z,3.20
2019-01-19T01:15:07.696Z,3.20
2019-01-19T01:17:38.721Z,3.10
2019-01-19T01:20:24.819Z,3.10
2019-01-19T01:23:01.877Z,3.10
2019-01-19T01:25:35.917Z,3.10
2019-01-19T01:28:12.902Z,3.10
2019-01-19T01:30:47.063Z,3.10
2019-01-19T01:33:27.044Z,3.20
2019-01-19T01:36:16.585Z,3.20
2019-01-19T01:38:50.496Z,3.20
2019-01-19T01:41:38.266Z,3.20
2019-01-19T01:44:09.745Z,3.20
2019-01-19T01:46:50.045Z,3.20
2019-01-19T01:49:21.524Z,3.10
2019-01-19T01:51:53.081Z,3.10
2019-01-19T01:54:36.212Z,3.10
2019-01-19T01:57:07.742Z,3.10
2019-01-19T01:59:58.213Z,3.10
2019-01-19T02:02:35.365Z,3.10
2019-01-19T02:05:15.552Z,3.10
2019-01-19T02:07:52.587Z,3.10
2019-01-19T02:10:38.869Z,3.20
2019-01-19T02:13:13.002Z,3.20
2019-01-19T02:16:17.546Z,3.20
2019-01-19T02:19:03.638Z,3.20
2019-01-19T02:21:52.750Z,3.20
2019-01-19T02:24:58.517Z,3.20
2019-01-19T02:27:38.510Z,3.20
2019-01-19T02:30:44.218Z,3.10
2019-01-19T02:33:36.551Z,3.10
2019-01-19T02:36:19.835Z,3.10
2019-01-19T02:39:07.883Z,3.10
2019-01-19T02:41:58.657Z,3.10
2019-01-19T02:44:35.709Z,3.10
2019-01-19T02:47:10.106Z,3.10
2019-01-19T02:49:58.006Z,3.10
2019-01-19T02:52:41.476Z,3.10
2019-01-19T02:55:24.455Z,3.10
2019-01-19T02:58:22.128Z,3.00
2019-01-19T03:01:02.131Z,3.00
2019-01-19T03:03:33.632Z,3.00
2019-01-19T03:06:13.642Z,2.90
2019-01-19T03:08:47.774Z,2.90
2019-01-19T03:11:39.687Z,2.90
2019-01-19T03:14:13.809Z,2.90
2019-01-19T03:16:47.792Z,2.90
2019-01-19T03:19:37.231Z,2.90
2019-01-19T03:22:25.081Z,2.90
2019-01-19T03:25:24.826Z,2.90
2019-01-19T03:27:59.223Z,2.90
2019-01-19T03:30:52.974Z,2.90
2019-01-19T03:33:40.963Z,2.90
2019-01-19T03:36:12.439Z,2.90
2019-01-19T03:39:01.897Z,3.00
2019-01-19T03:41:33.529Z,3.00
2019-01-19T03:44:16.557Z,3.00
2019-01-19T03:46:56.694Z,3.00
2019-01-19T03:49:28.170Z,3.00
2019-01-19T03:52:11.338Z,3.00
2019-01-19T03:55:05.082Z,3.00
2019-01-19T03:57:45.169Z,3.00
2019-01-19T04:00:28.432Z,3.00
2019-01-19T04:03:20.712Z,3.00
2019-01-19T04:05:54.765Z,3.00
2019-01-19T04:08:42.423Z,3.00
2019-01-19T04:11:33.108Z,3.00
2019-01-19T04:14:28.693Z,3.00
2019-01-19T04:17:17.925Z,3.00
2019-01-19T04:19:55.295Z,3.00
2019-01-19T04:22:26.801Z,3.00
2019-01-19T04:25:03.941Z,3.00
2019-01-19T04:27:32.177Z,3.00
2019-01-19T04:30:00.403Z,2.90
2019-01-19T04:32:28.637Z,2.90
2019-01-19T04:34:56.853Z,2.90
2019-01-19T04:37:25.086Z,2.90
2019-01-19T04:39:53.305Z,2.90
2019-01-19T04:42:21.711Z,2.80
2019-01-19T04:44:49.939Z,2.80
2019-01-19T04:47:18.178Z,2.80
2019-01-19T04:49:46.394Z,2.80
2019-01-19T04:52:14.629Z,2.70
2019-01-19T04:54:42.848Z,2.70
2019-01-19T04:57:11.077Z,2.70
2019-01-19T04:59:39.299Z,2.70
2019-01-19T05:02:07.528Z,2.60
2019-01-19T05:04:35.749Z,2.60
2019-01-19T05:07:03.977Z,2.60
2019-01-19T05:09:32.193Z,2.60
2019-01-19T05:12:00.436Z,2.50
2019-01-19T05:14:28.649Z,2.50
2019-01-19T05:16:56.885Z,2.50
2019-01-19T05:19:25.105Z,2.50
2019-01-19T05:21:53.367Z,2.50
2019-01-19T05:24:21.586Z,2.50
2019-01-19T05:26:49.798Z,2.40
2019-01-19T05:29:18.030Z,2.40
2019-01-19T05:31:46.255Z,2.40
2019-01-19T05:34:14.534Z,2.30
2019-01-19T05:36:42.779Z,2.30
2019-01-19T05:39:11.068Z,2.30
2019-01-19T05:41:39.291Z,2.20
2019-01-19T05:44:07.524Z,2.30
2019-01-19T05:46:35.768Z,2.30
2019-01-19T05:49:04.052Z,2.20
2019-01-19T05:51:32.260Z,2.20
2019-01-19T05:54:00.492Z,2.20
2019-01-19T05:56:28.711Z,2.20
2019-01-19T05:58:56.942Z,2.30
2019-01-19T06:01:25.626Z,2.30
2019-01-19T06:03:53.865Z,2.30
2019-01-19T06:06:22.241Z,2.40
2019-01-19T06:08:50.478Z,2.40
2019-01-19T06:11:18.705Z,2.40
2019-01-19T06:13:46.953Z,2.40
2019-01-19T06:16:15.208Z,2.40
2019-01-19T06:18:44.005Z,2.50
2019-01-19T06:21:12.489Z,2.40
2019-01-19T06:23:40.810Z,2.40
2019-01-19T06:26:09.029Z,2.50
2019-01-19T06:28:37.236Z,2.40
2019-01-19T06:31:07.091Z,2.40
2019-01-19T06:33:35.364Z,2.50
2019-01-19T06:36:03.596Z,2.50
2019-01-19T06:38:31.822Z,2.40
2019-01-19T06:41:00.056Z,2.50
2019-01-19T06:43:28.273Z,2.50
2019-01-19T06:45:56.509Z,2.50
2019-01-19T06:48:24.757Z,2.50
2019-01-19T06:50:53.077Z,2.50
2019-01-19T06:53:21.329Z,2.50
2019-01-19T06:55:49.560Z,2.50
2019-01-19T06:58:17.769Z,2.50
2019-01-19T07:00:46.010Z,2.50
2019-01-19T07:03:14.218Z,2.50
2019-01-19T07:05:42.541Z,2.50
2019-01-19T07:08:10.809Z,2.50
2019-01-19T07:10:39.041Z,2.50
2019-01-19T07:13:07.269Z,2.50
2019-01-19T07:15:35.499Z,2.50
2019-01-19T07:18:03.721Z,2.50
2019-01-19T07:20:31.947Z,2.50
2019-01-19T07:23:00.162Z,2.50
2019-01-19T07:25:28.401Z,2.50
2019-01-19T07:27:56.621Z,2.50
2019-01-19T07:30:24.858Z,2.50
2019-01-19T07:32:59.303Z,2.50
2019-01-19T07:35:27.571Z,2.50
2019-01-19T07:37:55.784Z,2.50
2019-01-19T07:40:23.992Z,2.50
2019-01-19T07:42:53.869Z,2.50
2019-01-19T07:45:22.090Z,2.40
2019-01-19T07:47:50.405Z,2.40
2019-01-19T07:50:18.989Z,2.40
2019-01-19T07:52:47.229Z,2.40
2019-01-19T07:55:18.634Z,2.40
2019-01-19T07:57:46.930Z,2.40
2019-01-19T08:00:17.606Z,2.40
2019-01-19T08:02:45.835Z,2.30
2019-01-19T08:05:14.050Z,2.30
2019-01-19T08:07:42.293Z,2.30
2019-01-19T08:10:15.661Z,2.40
2019-01-19T08:12:43.890Z,2.40
2019-01-19T08:15:15.108Z,2.30
2019-01-19T08:17:43.340Z,2.30
2019-01-19T08:20:13.193Z,2.30
2019-01-19T08:22:41.416Z,2.30
2019-01-19T08:25:11.086Z,2.30
2019-01-19T08:27:39.531Z,2.40
2019-01-19T08:30:11.011Z,2.40
2019-01-19T08:32:39.238Z,2.40
2019-01-19T08:35:09.286Z,2.40
2019-01-19T08:37:37.506Z,2.40
2019-01-19T08:40:35.249Z,2.40
2019-01-19T08:43:05.277Z,2.50
2019-01-19T08:45:33.489Z,2.50
2019-01-19T08:48:02.596Z,2.50
2019-01-19T08:50:30.810Z,2.50
2019-01-19T08:52:59.054Z,2.60
2019-01-19T08:55:27.269Z,2.60
2019-01-19T08:57:58.770Z,2.60
2019-01-19T09:00:26.987Z,2.60
2019-01-19T09:02:55.204Z,2.60
2019-01-19T09:05:23.482Z,2.60
2019-01-19T09:07:51.747Z,2.60
2019-01-19T09:10:20.056Z,2.60
2019-01-19T09:12:48.292Z,2.70
2019-01-19T09:15:19.797Z,2.70
2019-01-19T09:17:48.023Z,2.80
2019-01-19T09:20:16.994Z,2.80
2019-01-19T09:22:47.090Z,2.80
2019-01-19T09:25:15.766Z,2.90
2019-01-19T09:27:43.998Z,2.90
2019-01-19T09:30:23.426Z,3.00
2019-01-19T09:32:51.742Z,3.00
2019-01-19T09:35:19.967Z,3.10
2019-01-19T09:37:48.185Z,3.10
2019-01-19T09:40:17.467Z,3.30
2019-01-19T09:42:45.678Z,3.50
2019-01-19T09:45:20.582Z,3.80
2019-01-19T09:47:48.801Z,4.50
2019-01-19T09:50:18.522Z,5.40
2019-01-19T09:52:46.958Z,6.00
2019-01-19T09:55:15.249Z,6.50
2019-01-19T09:57:43.537Z,7.10
2019-01-19T10:00:17.305Z,7.80
2019-01-19T10:02:45.531Z,8.30
2019-01-19T10:05:19.469Z,9.00
2019-01-19T10:07:48.639Z,9.60
2019-01-19T10:10:17.121Z,10.10
2019-01-19T10:12:45.475Z,10.50
2019-01-19T10:15:17.657Z,10.80
2019-01-19T10:17:45.954Z,11.00
2019-01-19T10:20:17.338Z,11.20
2019-01-19T10:22:45.576Z,11.10
2019-01-19T10:25:15.326Z,11.30
2019-01-19T10:27:43.633Z,11.40
2019-01-19T10:30:15.288Z,11.50
2019-01-19T10:32:43.570Z,11.60
2019-01-19T10:35:13.505Z,11.80
2019-01-19T10:37:41.884Z,11.90
2019-01-19T10:40:14.950Z,11.90
2019-01-19T10:42:43.189Z,12.00
2019-01-19T10:45:20.179Z,12.10
2019-01-19T10:47:50.095Z,12.10
2019-01-19T10:50:18.576Z,12.20
2019-01-19T10:52:46.986Z,12.10
2019-01-19T10:55:20.845Z,12.00
2019-01-19T10:57:49.078Z,11.90
2019-01-19T11:00:22.920Z,11.90
2019-01-19T11:02:51.181Z,11.90
2019-01-19T11:05:19.548Z,11.80
2019-01-19T11:07:49.052Z,11.70
2019-01-19T11:10:25.586Z,11.70
2019-01-19T11:12:53.987Z,11.70
2019-01-19T11:15:22.205Z,11.60
2019-01-19T11:17:50.525Z,11.60
2019-01-19T11:20:26.127Z,11.60
2019-01-19T11:22:54.712Z,11.60
2019-01-19T11:25:22.939Z,11.50
2019-01-19T11:27:51.181Z,11.50
2019-01-19T11:30:24.179Z,11.40
2019-01-19T11:32:52.412Z,11.10
2019-01-19T11:35:20.638Z,10.70
2019-01-19T11:37:48.878Z,10.30
2019-01-19T11:40:22.777Z,9.80
2019-01-19T11:42:51.018Z,9.40
2019-01-19T11:45:20.773Z,9.10
2019-01-19T11:47:49.009Z,8.70
2019-01-19T11:50:17.231Z,8.40
2019-01-19T11:52:45.459Z,8.00
2019-01-19T11:55:17.372Z,7.70
2019-01-19T11:57:45.689Z,7.40
2019-01-19T12:00:22.714Z,7.10
2019-01-19T12:02:50.933Z,7.00
2019-01-19T12:05:19.170Z,6.80
2019-01-19T12:07:47.425Z,6.70
2019-01-19T12:10:18.353Z,6.60
2019-01-19T12:12:49.585Z,6.50
2019-01-19T12:15:17.841Z,6.40
2019-01-19T12:17:46.062Z,6.40
2019-01-19T12:20:17.100Z,6.30
2019-01-19T12:22:45.316Z,6.30
2019-01-19T12:25:16.495Z,6.20
2019-01-19T12:27:44.704Z,6.20
2019-01-19T12:30:18.318Z,6.20
2019-01-19T12:32:46.542Z,6.20
2019-01-19T12:35:14.776Z,6.10
2019-01-19T12:37:43.031Z,6.10
2019-01-19T12:40:16.713Z,6.00
2019-01-19T12:42:46.019Z,6.00
2019-01-19T12:45:23.318Z,5.90
2019-01-19T12:47:51.538Z,5.90
2019-01-19T12:50:22.216Z,5.90
2019-01-19T12:52:50.444Z,5.90
2019-01-19T12:55:18.757Z,5.90
2019-01-19T12:57:46.985Z,5.90
2019-01-19T13:00:18.013Z,5.90
2019-01-19T13:02:46.242Z,5.90
2019-01-19T13:05:35.760Z,5.90
2019-01-19T13:08:06.931Z,5.90
2019-01-19T13:10:38.484Z,5.90
2019-01-19T13:13:07.444Z,5.90
2019-01-19T13:15:47.799Z,5.90
2019-01-19T13:18:31.206Z,5.90
2019-01-19T13:21:14.477Z,5.90
2019-01-19T13:24:14.280Z,5.90
2019-01-19T13:27:05.172Z,5.90
2019-01-19T13:29:48.313Z,5.80
2019-01-19T13:32:34.579Z,5.80
2019-01-19T13:35:28.209Z,5.80
2019-01-19T13:38:08.242Z,5.80
2019-01-19T13:41:01.870Z,5.80
2019-01-19T13:43:45.037Z,5.80
2019-01-19T13:46:39.013Z,5.80
2019-01-19T13:49:29.661Z,5.80
2019-01-19T13:52:04.156Z,5.80
2019-01-19T13:54:47.181Z,5.80
2019-01-19T13:57:24.200Z,5.70
2019-01-19T14:00:05.631Z,5.70
2019-01-19T14:02:39.759Z,5.70
2019-01-19T14:05:28.319Z,5.60
2019-01-19T14:08:05.340Z,5.60
2019-01-19T14:10:45.740Z,5.60
2019-01-19T14:13:19.826Z,5.60
2019-01-19T14:16:00.049Z,5.60
2019-01-19T14:18:40.408Z,5.50
2019-01-19T14:21:12.372Z,5.50
2019-01-19T14:23:47.197Z,5.50
2019-01-19T14:26:35.090Z,5.50
2019-01-19T14:29:09.122Z,5.50
2019-01-19T14:32:06.084Z,5.50
2019-01-19T14:34:46.452Z,5.50
2019-01-19T14:37:23.585Z,5.40
2019-01-19T14:40:09.646Z,5.40
2019-01-19T14:42:47.180Z,5.40
2019-01-19T14:45:18.664Z,5.40
2019-01-19T14:47:58.821Z,5.40
2019-01-19T14:50:45.434Z,5.40
2019-01-19T14:53:36.062Z,5.50
2019-01-19T14:56:07.574Z,5.50
2019-01-19T14:58:39.235Z,5.50
2019-01-19T15:01:19.614Z,5.50
2019-01-19T15:03:54.198Z,5.50
2019-01-19T15:06:58.037Z,5.50
2019-01-19T15:09:38.397Z,5.50
2019-01-19T15:12:21.723Z,5.40
2019-01-19T15:15:05.336Z,5.40
2019-01-19T15:17:51.864Z,5.40
2019-01-19T15:20:25.987Z,5.40
2019-01-19T15:23:18.070Z,5.40
2019-01-19T15:26:05.682Z,5.40
2019-01-19T15:28:56.867Z,5.30
2019-01-19T15:31:43.162Z,5.30
2019-01-19T15:34:14.643Z,5.30
2019-01-19T15:36:46.119Z,5.30
2019-01-19T15:39:17.599Z,5.30
2019-01-19T15:42:05.504Z,5.30
2019-01-19T15:44:39.688Z,5.20
2019-01-19T15:47:25.849Z,5.20
2019-01-19T15:50:13.697Z,5.20
2019-01-19T15:53:02.914Z,5.20
2019-01-19T15:55:46.207Z,5.10
2019-01-19T15:58:20.497Z,5.10
2019-01-19T16:01:24.747Z,5.00
2019-01-19T16:03:56.217Z,5.00
2019-01-19T16:06:39.867Z,5.00
2019-01-19T16:09:33.964Z,4.90
2019-01-19T16:12:14.037Z,4.90
2019-01-19T16:15:20.064Z,4.90
2019-01-19T16:17:55.622Z,4.80
2019-01-19T16:20:42.065Z,4.80
2019-01-19T16:23:26.765Z,4.80
2019-01-19T16:26:03.773Z,4.80
2019-01-19T16:28:54.865Z,4.70
2019-01-19T16:31:34.833Z,4.70
2019-01-19T16:34:08.869Z,4.70
2019-01-19T16:36:40.358Z,4.60
2019-01-19T16:39:17.639Z,4.60
2019-01-19T16:41:51.781Z,4.60
2019-01-19T16:44:44.346Z,4.60
2019-01-19T16:47:18.439Z,4.60
2019-01-19T16:50:06.589Z,4.50
2019-01-19T16:52:46.954Z,4.50
2019-01-19T16:55:18.899Z,4.50
2019-01-19T16:57:56.734Z,4.50
2019-01-19T17:00:36.566Z,4.50
2019-01-19T17:03:14.083Z,4.40
2019-01-19T17:06:01.757Z,4.40
2019-01-19T17:08:38.428Z,4.40
2019-01-19T17:11:09.373Z,4.40
2019-01-19T17:13:40.929Z,4.40
2019-01-19T17:16:27.256Z,4.40
2019-01-19T17:19:16.685Z,4.40
2019-01-19T17:21:56.757Z,4.40
2019-01-19T17:24:34.237Z,4.40
2019-01-19T17:27:11.615Z,4.40
2019-01-19T17:29:47.229Z,4.40
2019-01-19T17:32:27.141Z,4.40
2019-01-19T17:35:15.126Z,4.40
2019-01-19T17:37:49.473Z,4.40
2019-01-19T17:40:39.149Z,4.40
2019-01-19T17:43:19.353Z,4.40
2019-01-19T17:45:53.313Z,4.30
2019-01-19T17:48:42.929Z,4.30
2019-01-19T17:51:46.145Z,4.30
2019-01-19T17:54:42.614Z,4.30
2019-01-19T17:57:19.861Z,4.20
2019-01-19T18:00:04.299Z,4.20
2019-01-19T18:02:35.792Z,4.20
2019-01-19T18:05:15.968Z,4.20
2019-01-19T18:08:12.858Z,4.20
2019-01-19T18:10:50.248Z,4.10
2019-01-19T18:13:33.639Z,4.10
2019-01-19T18:16:05.137Z,4.10
2019-01-19T18:18:42.521Z,4.10
2019-01-19T18:21:19.542Z,4.10
2019-01-19T18:24:25.890Z,4.10
2019-01-19T18:27:06.079Z,4.00
2019-01-19T18:29:49.084Z,4.10
2019-01-19T18:32:26.109Z,4.00
2019-01-19T18:35:08.112Z,4.00
2019-01-19T18:37:47.377Z,4.00
2019-01-19T18:40:23.217Z,4.00
2019-01-19T18:43:00.247Z,4.00
2019-01-19T18:45:37.534Z,3.90
2019-01-19T18:48:46.188Z,3.90
2019-01-19T18:51:38.321Z,3.90
2019-01-19T18:54:18.575Z,3.90
2019-01-19T18:57:15.591Z,3.80
2019-01-19T18:59:55.948Z,3.80
2019-01-19T19:02:32.936Z,3.80
2019-01-19T19:05:13.101Z,3.80
2019-01-19T19:07:50.465Z,3.80
2019-01-19T19:10:53.473Z,3.80
2019-01-19T19:13:39.808Z,3.80
2019-01-19T19:16:29.087Z,3.80
2019-01-19T19:19:15.541Z,3.70
2019-01-19T19:21:47.133Z,3.70
2019-01-19T19:24:36.565Z,3.70
2019-01-19T19:27:16.759Z,3.60
2019-01-19T19:29:53.905Z,3.60
2019-01-19T19:32:40.404Z,3.60
2019-01-19T19:35:14.663Z,3.60
2019-01-19T19:37:49.091Z,3.60
2019-01-19T19:40:23.394Z,3.50
2019-01-19T19:42:54.897Z,3.50
2019-01-19T19:45:35.177Z,3.50
2019-01-19T19:48:24.731Z,3.50
2019-01-19T19:51:13.862Z,3.50
2019-01-19T19:53:42.474Z,3.50
2019-01-19T19:56:09.903Z,3.50
2019-01-19T19:58:38.257Z,3.50
2019-01-19T20:01:06.473Z,3.50
2019-01-19T20:03:34.788Z,3.50
2019-01-19T20:06:03.018Z,3.50
2019-01-19T20:08:31.236Z,3.50
2019-01-19T20:10:59.504Z,3.40
2019-01-19T20:13:27.732Z,3.40
2019-01-19T20:15:55.966Z,3.40
2019-01-19T20:18:24.246Z,3.40
2019-01-19T20:20:52.466Z,3.40
2019-01-19T20:23:20.685Z,3.30
2019-01-19T20:25:48.925Z,3.30
2019-01-19T20:28:17.149Z,3.30
2019-01-19T20:30:45.387Z,3.30
2019-01-19T20:33:13.605Z,3.30
2019-01-19T20:35:41.841Z,3.30
2019-01-19T20:38:10.071Z,3.30
2019-01-19T20:40:38.312Z,3.20
2019-01-19T20:43:06.542Z,3.20
2019-01-19T20:45:34.764Z,3.20
2019-01-19T20:48:02.994Z,3.20
2019-01-19T20:50:31.220Z,3.20
2019-01-19T20:52:59.515Z,3.20
2019-01-19T20:55:27.747Z,3.20
2019-01-19T20:57:55.976Z,3.10
2019-01-19T21:00:24.282Z,3.10
2019-01-19T21:02:53.455Z,3.10
2019-01-19T21:05:21.795Z,3.10
2019-01-19T21:07:53.201Z,3.10
2019-01-19T21:10:21.431Z,3.10
2019-01-19T21:12:49.654Z,3.10
2019-01-19T21:15:18.041Z,3.10
2019-01-19T21:17:46.310Z,3.00
2019-01-19T21:20:15.190Z,3.00
2019-01-19T21:22:43.440Z,3.00
2019-01-19T21:25:12.900Z,3.00
2019-01-19T21:27:41.132Z,3.00
2019-01-19T21:30:14.965Z,3.00
2019-01-19T21:32:43.245Z,3.00
2019-01-19T21:35:11.468Z,2.90
2019-01-19T21:37:39.705Z,2.90
2019-01-19T21:40:12.332Z,2.90
2019-01-19T21:42:40.626Z,2.90
2019-01-19T21:45:17.292Z,2.80
2019-01-19T21:47:45.581Z,2.80
2019-01-19T21:50:13.804Z,2.80
2019-01-19T21:52:42.041Z,2.80
2019-01-19T21:55:10.437Z,2.80
2019-01-19T21:57:38.708Z,2.70
2019-01-19T22:00:10.189Z,2.70
2019-01-19T22:02:38.442Z,2.70
2019-01-19T22:05:07.497Z,2.70
2019-01-19T22:07:35.776Z,2.60
2019-01-19T22:10:12.166Z,2.60
2019-01-19T22:12:40.406Z,2.60
2019-01-19T22:15:11.780Z,2.60
2019-01-19T22:17:42.846Z,2.50
2019-01-19T22:20:13.015Z,2.50
2019-01-19T22:22:41.317Z,2.50
2019-01-19T22:25:09.544Z,2.50
2019-01-19T22:27:39.048Z,2.50
2019-01-19T22:30:10.665Z,2.50
2019-01-19T22:32:38.911Z,2.50
2019-01-19T22:35:08.673Z,2.50
2019-01-19T22:37:36.912Z,2.50
2019-01-19T22:40:11.244Z,2.50
2019-01-19T22:42:39.472Z,2.40
2019-01-19T22:45:09.841Z,2.40
2019-01-19T22:47:38.069Z,2.40
2019-01-19T22:50:09.576Z,2.40
2019-01-19T22:52:37.790Z,2.40
2019-01-19T22:55:06.099Z,2.40
2019-01-19T22:57:34.307Z,2.40
2019-01-19T23:00:02.567Z,2.40
2019-01-19T23:02:30.830Z,2.30
2019-01-19T23:04:59.126Z,2.30
2019-01-19T23:07:27.540Z,2.30
2019-01-19T23:09:55.771Z,2.30
2019-01-19T23:12:24.051Z,2.30
2019-01-19T23:14:52.667Z,2.20
2019-01-19T23:17:20.949Z,2.20
2019-01-19T23:19:49.188Z,2.20
2019-01-19T23:22:17.477Z,2.20
2019-01-19T23:24:45.875Z,2.20
2019-01-19T23:27:14.167Z,2.20
2019-01-19T23:29:42.397Z,2.20
2019-01-19T23:32:10.669Z,2.20
2019-01-19T23:34:38.980Z,2.10
2019-01-19T23:37:07.201Z,2.10
2019-01-19T23:39:35.433Z,2.10
2019-01-19T23:42:05.302Z,2.10
2019-01-19T23:44:33.562Z,2.10
2019-01-19T23:47:01.837Z,2.10
2019-01-19T23:49:30.066Z,2.10
2019-01-19T23:51:58.289Z,2.10
2019-01-19T23:54:26.522Z,2.00
2019-01-19T23:56:54.745Z,2.00
2019-01-19T23:59:22.964Z,2.00
